createdAt,value
2023-05-23T00:00:12.092Z,95756.28
2023-05-23T00:02:42.384Z,95742.41
2023-05-23T00:05:11.603Z,95744.81
2023-05-23T00:07:40.509Z,95757.31
2023-05-23T00:10:09.710Z,95749.31
2023-05-23T00:12:40.042Z,95750.56
2023-05-23T00:15:10.651Z,95753.69
2023-05-23T00:17:40.131Z,95741.34
2023-05-23T00:20:11.617Z,95742.13
2023-05-23T00:22:43.622Z,95736.75
2023-05-23T00:25:12.832Z,95728.25
2023-05-23T00:27:41.730Z,95739.88
2023-05-23T00:30:11.144Z,95732.50
2023-05-23T00:32:40.078Z,95731.34
2023-05-23T00:35:09.593Z,95733.66
2023-05-23T00:37:38.820Z,95739.47
2023-05-23T00:40:08.878Z,95735.97
2023-05-23T00:42:37.798Z,95736.75
2023-05-23T00:45:07.349Z,95732.50
2023-05-23T00:47:36.547Z,95734.00
2023-05-23T00:50:05.961Z,95734.28
2023-05-23T00:52:35.356Z,95736.88
2023-05-23T00:55:05.010Z,95729.47
2023-05-23T00:57:40.358Z,95735.19
2023-05-23T01:00:11.229Z,95733.13
2023-05-23T01:02:47.902Z,95732.25
2023-05-23T01:05:18.448Z,95728.28
2023-05-23T01:07:51.676Z,95730.47
2023-05-23T01:13:28.723Z,95732.03
2023-05-23T01:16:23.202Z,95738.66
2023-05-23T01:19:28.849Z,95734.41
2023-05-23T01:22:02.878Z,95731.09
2023-05-23T01:24:44.504Z,95733.53
2023-05-23T01:27:30.602Z,95738.72
2023-05-23T01:30:03.414Z,95732.22
2023-05-23T01:32:33.924Z,95734.34
2023-05-23T01:35:03.858Z,95724.72
2023-05-23T01:37:32.844Z,95734.06
2023-05-23T01:40:01.795Z,95731.63
2023-05-23T01:42:33.527Z,95722.63
2023-05-23T01:45:02.566Z,95720.41
2023-05-23T01:47:34.841Z,95731.69
2023-05-23T01:50:04.862Z,95721.09
2023-05-23T01:52:34.675Z,95718.91
2023-05-23T01:55:10.411Z,95725.03
2023-05-23T01:57:40.817Z,95723.31
2023-05-23T02:00:13.798Z,95715.28
2023-05-23T02:02:43.856Z,95722.09
2023-05-23T02:05:12.967Z,95718.50
2023-05-23T02:07:41.847Z,95713.19
2023-05-23T02:10:11.480Z,95713.63
2023-05-23T02:12:40.684Z,95708.56
2023-05-23T02:15:10.113Z,95709.59
2023-05-23T02:17:43.607Z,95714.47
2023-05-23T02:20:12.893Z,95706.81
2023-05-23T02:22:41.757Z,95711.22
2023-05-23T02:25:11.103Z,95704.75
2023-05-23T02:27:41.429Z,95695.56
2023-05-23T02:30:10.792Z,95697.31
2023-05-23T02:32:39.699Z,95692.25
2023-05-23T02:35:09.275Z,95692.09
2023-05-23T02:37:38.230Z,95683.22
2023-05-23T02:40:10.945Z,95676.66
2023-05-23T02:42:39.834Z,95681.13
2023-05-23T02:45:09.944Z,95680.16
2023-05-23T02:47:39.261Z,95677.97
2023-05-23T02:50:08.864Z,95667.59
2023-05-23T02:52:37.820Z,95672.97
2023-05-23T02:55:07.446Z,95659.88
2023-05-23T02:57:42.281Z,95662.88
2023-05-23T03:00:12.949Z,95649.00
2023-05-23T03:02:43.607Z,95652.50
2023-05-23T03:05:12.536Z,95650.69
2023-05-23T03:07:41.540Z,95642.31
2023-05-23T03:10:11.179Z,95639.28
2023-05-23T03:12:40.673Z,95628.97
2023-05-23T03:15:10.640Z,95624.50
2023-05-23T03:17:43.036Z,95624.16
2023-05-23T03:20:12.790Z,95625.53
2023-05-23T03:22:44.147Z,95626.56
2023-05-23T03:25:13.134Z,95624.84
2023-05-23T03:27:42.258Z,95625.81
2023-05-23T03:30:11.556Z,95609.81
2023-05-23T03:32:40.696Z,95611.91
2023-05-23T03:35:10.033Z,95595.44
2023-05-23T03:37:39.239Z,95609.88
2023-05-23T03:40:09.055Z,95605.69
2023-05-23T03:42:39.413Z,95608.38
2023-05-23T03:45:08.756Z,95600.44
2023-05-23T03:47:38.111Z,95609.91
2023-05-23T03:50:08.273Z,95605.09
2023-05-23T03:52:38.579Z,95608.44
2023-05-23T03:55:07.855Z,95609.47
2023-05-23T03:57:36.783Z,95610.28
2023-05-23T04:00:13.035Z,95616.94
2023-05-23T04:02:52.503Z,95616.38
2023-05-23T04:05:25.402Z,95614.75
2023-05-23T04:07:55.190Z,95616.06
2023-05-23T04:10:24.906Z,95633.63
2023-05-23T04:12:54.001Z,95638.88
2023-05-23T04:15:22.970Z,95641.31
2023-05-23T04:17:57.323Z,95651.25
2023-05-23T04:20:28.385Z,95648.38
2023-05-23T04:22:57.540Z,95679.28
2023-05-23T04:25:27.928Z,95664.63
2023-05-23T04:28:11.056Z,95658.16
2023-05-23T04:30:40.069Z,95647.34
2023-05-23T04:33:10.682Z,95655.59
2023-05-23T04:35:41.516Z,95645.22
2023-05-23T04:38:11.025Z,95618.13
2023-05-23T04:40:40.656Z,95621.13
2023-05-23T04:43:30.120Z,95617.84
2023-05-23T04:46:05.091Z,95620.81
2023-05-23T04:48:45.407Z,95618.94
2023-05-23T04:51:14.366Z,95619.34
2023-05-23T04:53:55.049Z,95612.22
2023-05-23T04:56:27.951Z,95612.59
2023-05-23T04:58:57.174Z,95614.34
2023-05-23T05:01:31.940Z,95623.19
2023-05-23T05:04:02.173Z,95614.81
2023-05-23T05:06:31.648Z,95611.03
2023-05-23T05:09:00.668Z,95591.91
2023-05-23T05:11:29.614Z,95592.31
2023-05-23T05:13:58.542Z,95579.50
2023-05-23T05:16:27.728Z,95579.44
2023-05-23T05:18:57.923Z,95566.41
2023-05-23T05:21:26.912Z,95555.03
2023-05-23T05:23:56.413Z,95555.66
2023-05-23T05:26:25.387Z,95561.31
2023-05-23T05:28:54.395Z,95549.38
2023-05-23T05:31:24.129Z,95537.28
2023-05-23T05:33:52.995Z,95539.75
2023-05-23T05:36:22.372Z,95524.03
2023-05-23T05:38:53.740Z,95517.66
2023-05-23T05:41:23.914Z,95516.69
2023-05-23T05:43:55.214Z,95504.63
2023-05-23T05:46:24.369Z,95513.78
2023-05-23T05:48:54.671Z,95497.66
2023-05-23T05:51:24.168Z,95504.75
2023-05-23T05:53:53.101Z,95492.31
2023-05-23T05:56:23.195Z,95473.09
2023-05-23T05:58:52.047Z,95467.72
2023-05-23T06:01:22.287Z,95477.13
2023-05-23T06:03:51.563Z,95470.75
2023-05-23T06:06:21.123Z,95466.66
2023-05-23T06:08:50.278Z,95472.31
2023-05-23T06:11:19.289Z,95470.72
2023-05-23T06:13:48.176Z,95453.34
2023-05-23T06:16:17.213Z,95459.31
2023-05-23T06:18:47.297Z,95458.72
2023-05-23T06:21:16.986Z,95446.31
2023-05-23T06:23:50.574Z,95421.13
2023-05-23T06:26:19.519Z,95429.34
2023-05-23T06:28:48.442Z,95436.84
2023-05-23T06:31:17.313Z,95440.31
2023-05-23T06:33:46.359Z,95420.28
2023-05-23T06:36:15.393Z,95433.25
2023-05-23T06:38:44.217Z,95427.50
2023-05-23T06:41:13.090Z,95435.97
2023-05-23T06:43:42.016Z,95425.00
2023-05-23T06:46:16.214Z,95424.69
2023-05-23T06:48:45.331Z,95424.94
2023-05-23T06:51:14.316Z,95432.41
2023-05-23T06:53:44.138Z,95436.06
2023-05-23T06:56:13.673Z,95429.66
2023-05-23T06:58:53.638Z,95434.53
2023-05-23T07:01:24.488Z,95429.34
2023-05-23T07:03:53.704Z,95440.66
2023-05-23T07:06:23.555Z,95444.25
2023-05-23T07:08:53.096Z,95441.25
2023-05-23T07:11:23.807Z,95442.06
2023-05-23T07:13:59.988Z,95441.06
2023-05-23T07:16:41.862Z,95433.19
2023-05-23T07:19:10.973Z,95423.53
2023-05-23T07:21:47.411Z,95435.41
2023-05-23T07:24:19.188Z,95432.69
2023-05-23T07:26:48.235Z,95425.16
2023-05-23T07:29:17.109Z,95423.53
2023-05-23T07:31:48.288Z,95426.88
2023-05-23T07:34:17.231Z,95434.16
2023-05-23T07:36:54.974Z,95411.72
2023-05-23T07:39:26.517Z,95415.34
2023-05-23T07:41:59.503Z,95425.22
2023-05-23T07:44:29.693Z,95414.38
2023-05-23T07:46:58.792Z,95431.56
2023-05-23T07:49:27.972Z,95419.88
2023-05-23T07:51:59.245Z,95418.16
2023-05-23T07:54:29.034Z,95421.94
2023-05-23T07:57:01.778Z,95414.63
2023-05-23T07:59:31.043Z,95412.34
2023-05-23T08:02:01.451Z,95409.03
2023-05-23T08:04:31.020Z,95410.59
2023-05-23T08:07:05.526Z,95407.22
2023-05-23T08:09:56.836Z,95406.88
2023-05-23T08:12:25.749Z,95413.19
2023-05-23T08:15:04.188Z,95412.13
2023-05-23T08:20:12.853Z,95418.34
2023-05-23T08:22:41.899Z,95410.59
2023-05-23T08:25:11.829Z,95411.47
2023-05-23T08:27:42.345Z,95422.88
2023-05-23T08:30:30.313Z,95417.06
2023-05-23T08:32:59.498Z,95418.72
2023-05-23T08:35:29.909Z,95417.53
2023-05-23T08:37:58.871Z,95406.75
2023-05-23T08:40:31.982Z,95415.97
2023-05-23T08:43:20.300Z,95421.72
2023-05-23T08:45:52.079Z,95415.06
2023-05-23T08:48:22.016Z,95417.84
2023-05-23T08:50:54.158Z,95409.31
2023-05-23T08:53:29.012Z,95404.34
2023-05-23T08:56:06.389Z,95405.00
2023-05-23T08:58:44.505Z,95412.78
2023-05-23T09:01:15.276Z,95403.41
2023-05-23T09:03:45.049Z,95404.03
2023-05-23T09:06:22.693Z,95404.25
2023-05-23T09:08:52.622Z,95402.75
2023-05-23T09:11:23.327Z,95409.50
2023-05-23T09:13:52.959Z,95391.34
2023-05-23T09:16:24.173Z,95386.56
2023-05-23T09:18:57.961Z,95400.34
2023-05-23T09:21:28.599Z,95387.66
2023-05-23T09:24:04.294Z,95383.59
2023-05-23T09:26:33.753Z,95394.09
2023-05-23T09:29:06.654Z,95377.47
2023-05-23T09:31:35.787Z,95381.75
2023-05-23T09:34:05.242Z,95378.06
2023-05-23T09:36:35.655Z,95374.28
2023-05-23T09:39:06.256Z,95368.38
2023-05-23T09:41:36.115Z,95371.44
2023-05-23T09:44:10.282Z,95358.00
2023-05-23T09:46:39.598Z,95369.13
2023-05-23T09:49:19.076Z,95363.22
2023-05-23T09:52:00.204Z,95365.75
2023-05-23T09:54:29.324Z,95346.94
2023-05-23T09:57:02.002Z,95358.06
2023-05-23T09:59:32.822Z,95353.78
2023-05-23T10:02:04.684Z,95360.63
2023-05-23T10:04:36.169Z,95367.38
2023-05-23T10:07:17.876Z,95353.91
2023-05-23T10:09:54.917Z,95354.22
2023-05-23T10:12:51.100Z,95346.94
2023-05-23T10:15:24.548Z,95360.72
2023-05-23T10:18:19.168Z,95346.38
2023-05-23T10:20:56.728Z,95349.34
2023-05-23T10:23:25.734Z,95348.88
2023-05-23T10:25:55.954Z,95351.19
2023-05-23T10:28:25.282Z,95355.75
2023-05-23T10:30:54.302Z,95348.63
2023-05-23T10:33:24.509Z,95347.41
2023-05-23T10:36:10.661Z,95349.13
2023-05-23T10:38:51.867Z,95346.19
2023-05-23T10:41:35.008Z,95337.69
2023-05-23T10:44:31.967Z,95340.13
2023-05-23T10:47:04.872Z,95341.34
2023-05-23T10:49:45.683Z,95341.47
2023-05-23T10:52:18.158Z,95349.31
2023-05-23T10:54:53.007Z,95347.06
2023-05-23T10:57:24.013Z,95340.88
2023-05-23T10:59:53.068Z,95345.66
2023-05-23T11:02:30.220Z,95338.00
2023-05-23T11:05:25.169Z,95338.34
2023-05-23T11:08:18.351Z,95339.22
2023-05-23T11:10:57.490Z,95338.81
2023-05-23T11:13:26.627Z,95337.72
2023-05-23T11:15:55.590Z,95335.84
2023-05-23T11:18:28.099Z,95329.19
2023-05-23T11:20:59.551Z,95329.13
2023-05-23T11:23:42.419Z,95330.38
2023-05-23T11:26:34.585Z,95323.13
2023-05-23T11:29:06.413Z,95316.00
2023-05-23T11:31:39.064Z,95315.84
2023-05-23T11:34:08.425Z,95317.94
2023-05-23T11:36:37.413Z,95316.09
2023-05-23T11:39:06.420Z,95311.31
2023-05-23T11:41:36.569Z,95304.75
2023-05-23T11:44:13.648Z,95308.53
2023-05-23T11:46:43.447Z,95314.03
2023-05-23T11:49:15.485Z,95309.09
2023-05-23T11:51:44.548Z,95314.72
2023-05-23T11:54:14.097Z,95313.81
2023-05-23T11:56:43.103Z,95315.25
2023-05-23T11:59:12.099Z,95304.59
2023-05-23T12:01:42.192Z,95301.59
2023-05-23T12:04:13.477Z,95302.59
2023-05-23T12:06:42.726Z,95308.97
2023-05-23T12:09:14.716Z,95302.63
2023-05-23T12:11:44.909Z,95304.22
2023-05-23T12:14:18.181Z,95301.22
2023-05-23T12:16:47.978Z,95295.03
2023-05-23T12:19:20.555Z,95295.53
2023-05-23T12:21:50.726Z,95293.22
2023-05-23T12:24:23.979Z,95296.06
2023-05-23T12:26:55.522Z,95290.63
2023-05-23T12:29:35.914Z,95293.34
2023-05-23T12:32:07.045Z,95286.41
2023-05-23T12:34:36.171Z,95287.34
2023-05-23T12:37:19.086Z,95283.09
2023-05-23T12:39:49.637Z,95291.34
2023-05-23T12:42:18.610Z,95286.81
2023-05-23T12:44:50.314Z,95275.16
2023-05-23T12:47:19.442Z,95278.38
2023-05-23T12:49:48.880Z,95275.28
2023-05-23T12:52:17.733Z,95273.44
2023-05-23T12:54:47.104Z,95259.25
2023-05-23T12:57:16.195Z,95276.00
2023-05-23T12:59:45.163Z,95269.47
2023-05-23T13:02:14.516Z,95264.88
2023-05-23T13:04:43.967Z,95256.91
2023-05-23T13:07:13.363Z,95261.91
2023-05-23T13:09:42.637Z,95264.25
2023-05-23T13:12:12.975Z,95249.38
2023-05-23T13:14:42.841Z,95254.72
2023-05-23T13:17:11.826Z,95255.97
2023-05-23T13:19:40.887Z,95258.31
2023-05-23T13:22:13.665Z,95249.16
2023-05-23T13:24:44.226Z,95257.28
2023-05-23T13:27:13.062Z,95262.75
2023-05-23T13:29:42.665Z,95251.56
2023-05-23T13:32:11.525Z,95260.03
2023-05-23T13:34:40.551Z,95260.03
2023-05-23T13:37:09.515Z,95262.03
2023-05-23T13:39:38.502Z,95256.72
2023-05-23T13:42:08.771Z,95247.47
2023-05-23T13:44:38.058Z,95244.03
2023-05-23T13:47:14.734Z,95251.81
2023-05-23T13:49:43.875Z,95259.19
2023-05-23T13:52:14.520Z,95250.31
2023-05-23T13:54:44.869Z,95253.81
2023-05-23T13:57:13.782Z,95246.88
2023-05-23T13:59:42.589Z,95258.16
2023-05-23T14:02:12.729Z,95253.53
2023-05-23T14:04:41.867Z,95257.47
2023-05-23T14:07:10.723Z,95253.34
2023-05-23T14:09:40.342Z,95264.22
2023-05-23T14:12:09.450Z,95249.19
2023-05-23T14:14:38.345Z,95243.47
2023-05-23T14:17:07.304Z,95245.47
2023-05-23T14:19:36.482Z,95250.94
2023-05-23T14:22:05.518Z,95253.34
2023-05-23T14:24:34.427Z,95250.69
2023-05-23T14:27:03.396Z,95249.91
2023-05-23T14:29:32.529Z,95243.75
2023-05-23T14:32:03.409Z,95241.09
2023-05-23T14:34:32.752Z,95234.59
2023-05-23T14:37:01.962Z,95230.38
2023-05-23T14:39:30.941Z,95227.31
2023-05-23T14:42:00.165Z,95218.06
2023-05-23T14:44:29.207Z,95221.94
2023-05-23T14:46:58.251Z,95211.59
2023-05-23T14:49:27.316Z,95203.09
2023-05-23T14:51:56.547Z,95205.06
2023-05-23T14:54:25.469Z,95200.81
2023-05-23T14:56:54.416Z,95198.13
2023-05-23T14:59:23.749Z,95196.25
2023-05-23T15:01:53.517Z,95197.72
2023-05-23T15:04:22.789Z,95193.13
2023-05-23T15:06:51.881Z,95193.22
2023-05-23T15:09:20.897Z,95194.03
2023-05-23T15:11:50.347Z,95182.88
2023-05-23T15:14:19.369Z,95182.88
2023-05-23T15:16:49.602Z,95180.16
2023-05-23T15:19:18.645Z,95178.63
2023-05-23T15:21:50.995Z,95168.97
2023-05-23T15:24:20.727Z,95170.53
2023-05-23T15:26:49.843Z,95179.44
2023-05-23T15:29:18.907Z,95163.97
2023-05-23T15:31:48.010Z,95165.84
2023-05-23T15:34:16.995Z,95160.41
2023-05-23T15:36:45.998Z,95146.84
2023-05-23T15:39:14.894Z,95146.44
2023-05-23T15:41:43.989Z,95141.13
2023-05-23T15:44:15.043Z,95133.38
2023-05-23T15:46:44.366Z,95117.31
2023-05-23T15:49:24.855Z,95120.41
2023-05-23T15:51:55.751Z,95120.09
2023-05-23T15:54:24.808Z,95108.22
2023-05-23T15:56:53.787Z,95105.94
2023-05-23T15:59:22.721Z,95095.19
2023-05-23T16:01:53.332Z,95100.53
2023-05-23T16:04:24.128Z,95106.34
2023-05-23T16:06:53.176Z,95101.34
2023-05-23T16:09:22.057Z,95106.69
2023-05-23T16:11:50.998Z,95111.34
2023-05-23T16:14:20.420Z,95109.47
2023-05-23T16:16:49.519Z,95086.88
2023-05-23T16:19:18.510Z,95090.16
2023-05-23T16:21:47.559Z,95069.44
2023-05-23T16:24:17.723Z,95076.81
2023-05-23T16:26:46.541Z,95069.84
2023-05-23T16:29:15.642Z,95051.72
2023-05-23T16:31:44.564Z,95051.69
2023-05-23T16:34:13.522Z,95044.34
2023-05-23T16:36:42.558Z,95036.97
2023-05-23T16:39:11.860Z,95042.38
2023-05-23T16:41:40.832Z,95034.63
2023-05-23T16:44:09.752Z,95030.75
2023-05-23T16:46:38.934Z,95026.50
2023-05-23T16:49:07.852Z,95024.94
2023-05-23T16:51:36.786Z,95017.25
2023-05-23T16:54:05.770Z,95021.47
2023-05-23T16:56:34.662Z,95019.94
2023-05-23T16:59:03.642Z,95023.47
2023-05-23T17:01:33.591Z,95021.53
2023-05-23T17:04:02.614Z,95016.91
2023-05-23T17:06:32.055Z,95021.53
2023-05-23T17:09:00.955Z,95028.06
2023-05-23T17:11:29.880Z,95017.66
2023-05-23T17:13:58.707Z,95007.56
2023-05-23T17:16:27.697Z,95019.22
2023-05-23T17:18:57.012Z,95016.59
2023-05-23T17:21:26.128Z,95010.47
2023-05-23T17:23:55.046Z,95009.34
2023-05-23T17:26:24.169Z,95010.16
2023-05-23T17:28:53.268Z,95012.53
2023-05-23T17:31:22.259Z,95016.84
2023-05-23T17:33:51.311Z,95014.25
2023-05-23T17:36:20.203Z,95019.91
2023-05-23T17:38:49.458Z,95017.06
2023-05-23T17:41:18.804Z,95026.94
2023-05-23T17:43:47.744Z,95012.44
2023-05-23T17:46:16.944Z,95021.03
2023-05-23T17:48:47.951Z,95011.13
2023-05-23T17:51:17.584Z,95010.03
2023-05-23T17:53:46.554Z,95018.56
2023-05-23T17:56:15.350Z,95017.44
2023-05-23T17:58:44.528Z,95020.50
2023-05-23T18:01:15.304Z,95010.50
2023-05-23T18:03:44.611Z,95029.72
2023-05-23T18:06:13.600Z,95026.22
2023-05-23T18:08:42.569Z,95027.72
2023-05-23T18:11:11.533Z,95036.16
2023-05-23T18:13:40.479Z,95026.50
2023-05-23T18:16:09.944Z,95029.53
2023-05-23T18:18:38.817Z,95027.94
2023-05-23T18:21:09.443Z,95021.41
2023-05-23T18:23:38.315Z,95019.41
2023-05-23T18:26:07.230Z,95019.41
2023-05-23T18:28:36.260Z,95014.38
2023-05-23T18:31:05.301Z,95010.13
2023-05-23T18:33:34.241Z,95011.22
2023-05-23T18:36:03.740Z,95008.09
2023-05-23T18:38:32.755Z,95004.19
2023-05-23T18:41:01.833Z,94996.09
2023-05-23T18:43:30.576Z,95005.25
2023-05-23T18:45:59.318Z,94994.09
2023-05-23T18:48:28.286Z,94985.63
2023-05-23T18:50:57.245Z,94980.66
2023-05-23T18:53:26.147Z,94979.84
2023-05-23T18:55:55.070Z,94983.66
2023-05-23T18:58:23.922Z,94969.41
2023-05-23T19:00:54.166Z,94967.44
2023-05-23T19:03:23.220Z,94962.41
2023-05-23T19:05:52.241Z,94962.06
2023-05-23T19:08:21.080Z,94957.09
2023-05-23T19:10:49.999Z,94957.84
2023-05-23T19:13:20.668Z,94954.75
2023-05-23T19:15:52.615Z,94948.25
2023-05-23T19:18:21.554Z,94949.81
2023-05-23T19:20:52.355Z,94938.69
2023-05-23T19:23:21.960Z,94936.41
2023-05-23T19:25:50.765Z,94929.56
2023-05-23T19:28:19.707Z,94921.53
2023-05-23T19:30:48.917Z,94921.97
2023-05-23T19:33:19.029Z,94911.22
2023-05-23T19:35:47.847Z,94914.28
2023-05-23T19:38:16.800Z,94900.91
2023-05-23T19:40:47.584Z,94882.50
2023-05-23T19:43:16.526Z,94887.53
2023-05-23T19:45:45.401Z,94879.88
2023-05-23T19:48:14.768Z,94886.75
2023-05-23T19:50:44.321Z,94887.94
2023-05-23T19:53:13.558Z,94902.50
2023-05-23T19:55:43.490Z,94891.78
2023-05-23T19:58:12.321Z,94890.63
2023-05-23T20:00:42.893Z,94890.63
2023-05-23T20:03:12.849Z,94890.94
2023-05-23T20:05:42.185Z,94892.84
2023-05-23T20:08:11.322Z,94881.34
2023-05-23T20:10:40.634Z,94879.34
2023-05-23T20:13:09.810Z,94871.66
2023-05-23T20:15:40.509Z,94875.06
2023-05-23T20:18:10.143Z,94880.38
2023-05-23T20:20:39.105Z,94871.91
2023-05-23T20:23:08.066Z,94869.16
2023-05-23T20:25:36.896Z,94873.28
2023-05-23T20:28:06.266Z,94866.34
2023-05-23T20:30:35.346Z,94875.53
2023-05-23T20:33:04.400Z,94861.81
2023-05-23T20:35:33.329Z,94843.09
2023-05-23T20:38:02.269Z,94841.97
2023-05-23T20:40:34.120Z,94846.13
2023-05-23T20:43:05.696Z,94834.50
2023-05-23T20:45:34.813Z,94836.41
2023-05-23T20:48:03.864Z,94842.56
2023-05-23T20:50:34.332Z,94832.28
2023-05-23T20:53:03.641Z,94835.38
2023-05-23T20:55:35.474Z,94837.28
2023-05-23T20:58:04.396Z,94846.06
2023-05-23T21:00:33.398Z,94854.88
2023-05-23T21:03:03.658Z,94860.25
2023-05-23T21:05:32.807Z,94868.28
2023-05-23T21:08:01.866Z,94845.66
2023-05-23T21:10:30.828Z,94849.88
2023-05-23T21:13:00.711Z,94854.84
2023-05-23T21:15:29.910Z,94850.63
2023-05-23T21:17:59.430Z,94853.28
2023-05-23T21:20:29.560Z,94857.09
2023-05-23T21:22:58.433Z,94841.66
2023-05-23T21:25:27.959Z,94847.72
2023-05-23T21:27:56.792Z,94851.47
2023-05-23T21:30:26.413Z,94836.16
2023-05-23T21:32:55.478Z,94831.50
2023-05-23T21:35:24.460Z,94831.84
2023-05-23T21:37:53.594Z,94826.78
2023-05-23T21:40:22.497Z,94821.47
2023-05-23T21:42:51.350Z,94813.13
2023-05-23T21:45:20.213Z,94808.94
2023-05-23T21:47:49.091Z,94805.53
2023-05-23T21:50:17.984Z,94808.63
2023-05-23T21:52:46.863Z,94809.00
2023-05-23T21:55:15.886Z,94800.19
2023-05-23T21:57:44.750Z,94786.81
2023-05-23T22:00:15.438Z,94782.59
2023-05-23T22:02:45.016Z,94779.16
2023-05-23T22:05:14.105Z,94773.00
2023-05-23T22:07:43.324Z,94766.47
2023-05-23T22:10:12.667Z,94773.28
2023-05-23T22:12:41.701Z,94770.94
2023-05-23T22:15:11.079Z,94783.66
2023-05-23T22:17:43.998Z,94774.22
2023-05-23T22:20:15.224Z,94785.16
2023-05-23T22:22:44.054Z,94787.16
2023-05-23T22:25:12.901Z,94787.94
2023-05-23T22:27:42.023Z,94786.47
2023-05-23T22:30:11.418Z,94776.47
2023-05-23T22:32:40.264Z,94779.44
2023-05-23T22:35:09.549Z,94772.09
2023-05-23T22:37:38.436Z,94767.13
2023-05-23T22:40:08.290Z,94775.94
2023-05-23T22:42:37.547Z,94779.09
2023-05-23T22:45:07.958Z,94775.66
2023-05-23T22:47:37.057Z,94766.78
2023-05-23T22:50:06.228Z,94771.63
2023-05-23T22:52:35.452Z,94773.00
2023-05-23T22:55:06.707Z,94781.19
2023-05-23T22:57:36.967Z,94774.13
2023-05-23T23:00:07.752Z,94773.25
2023-05-23T23:02:36.856Z,94775.88
2023-05-23T23:05:06.666Z,94776.56
2023-05-23T23:07:35.433Z,94786.88
2023-05-23T23:10:04.664Z,94785.66
2023-05-23T23:12:33.926Z,94785.53
2023-05-23T23:15:02.859Z,94792.22
2023-05-23T23:17:36.061Z,94776.31
2023-05-23T23:20:08.530Z,94777.22
2023-05-23T23:22:37.570Z,94776.91
2023-05-23T23:25:12.957Z,94783.81
2023-05-23T23:27:41.944Z,94776.09
2023-05-23T23:30:11.231Z,94786.31
2023-05-23T23:32:40.142Z,94770.66
2023-05-23T23:35:09.404Z,94776.81
2023-05-23T23:37:38.325Z,94784.41
2023-05-23T23:40:09.388Z,94780.22
2023-05-23T23:42:38.523Z,94774.53
2023-05-23T23:45:07.861Z,94784.47
2023-05-23T23:47:36.990Z,94778.63
2023-05-23T23:50:07.350Z,94774.06
2023-05-23T23:52:38.012Z,94787.16
2023-05-23T23:55:07.696Z,94784.47
2023-05-23T23:57:36.625Z,94791.72
